Latest Weather Observations for Albion Park

IDN60801

Issued at 3:04 am EST Thursday 7 May 2015 (issued every 30 minutes, with the page automatically refreshed every 10 minutes)

About weather observations | Map of weather stations | Latest weather observations for NSW | Other Formats
Station Details ID: 068241 Name: WOLLONGONG AIRPORT Lat: -34.56 Lon: 150.79 Height: 8.0 m
Data from the previous 72 hours. | See also: Recent months at Albion Park
Date/Time
EST
Temp
°C
App
Temp
°C
Dew
Point
Rel
Hum
%
Delta-T
°C
Wind Press
QNH
hPa
Press
MSL
hPa
Rain
since 9 am
mm
Dir
 
Spd
km/h
Gust
km/h
Spd
kts
Gust
kts
07/03:00am 14.3 7.1 5.9 57 4.0 W 33 48 18 26 1014.8 1014.8 0.0
07/02:30am 14.2 6.2 5.8 57 4.0 W 37 57 20 31 1014.9 1014.9 0.0
07/02:00am 14.1 5.0 5.7 57 4.0 W 43 70 23 38 1014.5 1014.5 0.0
07/01:31am 14.3 5.0 5.7 56 4.1 W 44 67 24 36 1015.2 1015.2 0.0
07/01:30am 14.2 5.0 5.6 56 4.1 W 43 59 23 32 1015.2 1015.2 0.0
07/01:05am 14.5 4.4 5.6 55 4.2 W 48 70 26 38 1015.1 1015.1 0.0
07/01:00am 14.4 4.3 5.5 55 4.2 W 48 65 26 35 1015.4 1015.4 0.0
07/12:35am 14.2 7.1 5.3 55 4.2 WSW 32 54 17 29 1015.6 1015.6 0.0
07/12:30am 14.1 8.1 5.2 55 4.2 WSW 26 44 14 24 1015.8 1015.8 0.0
07/12:00am 14.3 10.0 5.1 54 4.3 WSW 17 32 9 17 1015.8 1015.8 0.0
 
Date/Time
EST
Temp
°C
App
Temp
°C
Dew
Point
Rel
Hum
%
Delta-T
°C
Wind Press
QNH
hPa
Press
MSL
hPa
Rain
since 9 am
mm
Dir
 
Spd
km/h
Gust
km/h
Spd
kts
Gust
kts
06/11:30pm 14.2 9.8 5.0 54 4.3 WSW 17 30 9 16 1016.0 1016.0 0.0
06/11:03pm 14.3 7.5 4.9 53 4.4 W 30 48 16 26 1015.6 1015.6 0.0
06/11:00pm 14.3 7.5 4.9 53 4.4 W 30 43 16 23 1015.6 1015.6 0.0
06/10:32pm 13.9 5.2 4.2 52 4.4 W 39 57 21 31 1015.5 1015.5 0.0
06/10:30pm 14.0 4.6 4.3 52 4.5 W 43 57 23 31 1015.4 1015.4 0.0
06/10:00pm 14.4 3.2 4.1 50 4.7 W 52 72 28 39 1015.1 1015.1 0.0
06/09:30pm 15.0 2.4 3.8 47 5.1 WSW 59 83 32 45 1014.6 1014.6 0.0
06/09:00pm 14.9 2.3 3.7 47 5.1 WSW 59 80 32 43 1014.3 1014.3 0.0
06/08:33pm 15.1 3.5 3.9 47 5.1 WSW 54 72 29 39 1015.0 1015.0 0.0
06/08:30pm 15.0 3.8 3.8 47 5.1 WSW 52 69 28 37 1015.0 1015.0 0.0
06/08:00pm 14.9 4.5 4.3 49 4.9 WSW 48 67 26 36 1015.0 1015.0 0.0
06/07:30pm 14.6 5.3 4.9 52 4.5 WSW 43 61 23 33 1014.9 1014.9 0.0
06/07:02pm 14.8 5.5 4.8 51 4.7 WSW 43 61 23 33 1014.2 1014.2 0.0
06/07:00pm 14.7 5.3 4.7 51 4.7 WSW 43 56 23 30 1014.2 1014.2 0.0
06/06:30pm 14.7 6.9 5.0 52 4.5 WSW 35 46 19 25 1013.9 1013.9 0.0
06/06:00pm 14.7 7.5 5.0 52 4.5 WSW 32 43 17 23 1013.4 1013.4 0.0
06/05:35pm 15.1 7.3 5.0 51 4.7 W 35 54 19 29 1013.2 1013.2 0.0
06/05:30pm 15.5 6.9 4.8 49 5.0 W 39 54 21 29 1012.9 1012.9 0.0
06/05:24pm 15.6 8.2 4.9 49 5.0 W 33 54 18 29 1012.8 1012.8 0.0
06/05:00pm 15.8 8.6 4.8 48 5.2 W 32 44 17 24 1013.2 1013.2 0.0
06/04:30pm 16.9 7.3 4.6 44 5.8 W 44 54 24 29 1012.9 1012.9 0.0
06/04:00pm 17.3 7.4 4.9 44 5.9 W 46 61 25 33 1012.4 1012.4 0.0
06/03:30pm 17.7 7.8 4.6 42 6.2 W 46 65 25 35 1011.6 1011.6 0.0
06/03:05pm 18.0 8.2 5.2 43 6.2 W 46 65 25 35 1011.5 1011.5 0.0
06/03:00pm 18.0 7.2 5.9 45 5.9 W 52 65 28 35 1011.5 1011.5 0.0
06/02:30pm 18.1 9.6 5.0 42 6.3 W 39 59 21 32 1011.4 1011.4 0.0
06/02:13pm 18.6 11.6 5.8 43 6.3 W 32 50 17 27 1011.8 1011.8 0.0
06/02:00pm 18.3 9.4 5.2 42 6.3 WSW 41 56 22 30 1011.5 1011.5 0.0
06/01:32pm 18.2 7.8 4.4 40 6.6 W 48 67 26 36 1011.2 1011.2 0.0
06/01:30pm 18.4 8.5 4.9 41 6.5 W 46 61 25 33 1011.2 1011.2 0.0
06/01:05pm 18.3 9.6 4.1 39 6.7 W 39 57 21 31 1011.8 1011.8 0.0
06/01:00pm 18.5 10.2 4.3 39 6.8 W 37 54 20 29 1012.0 1012.0 0.0
06/12:32pm 18.6 11.9 5.5 42 6.4 W 30 48 16 26 1012.4 1012.4 0.0
06/12:30pm 18.4 11.9 4.6 40 6.6 W 28 41 15 22 1012.4 1012.4 0.0
06/12:00pm 18.3 12.7 5.2 42 6.3 W 24 33 13 18 1013.0 1013.0 0.0
06/11:51am 18.2 11.2 5.8 44 6.1 WSW 32 50 17 27 1013.0 1013.0 0.0
06/11:30am 17.8 9.8 4.0 40 6.5 W 35 46 19 25 1013.3 1013.3 0.0
06/11:01am 17.5 10.1 4.1 41 6.3 WSW 32 52 17 28 1013.2 1013.2 0.0
06/11:00am 17.5 10.5 4.1 41 6.3 WSW 30 44 16 24 1013.2 1013.2 0.0
06/10:49am 17.5 11.0 4.8 43 6.1 W 28 48 15 26 1013.1 1013.1 0.0
06/10:30am 17.2 9.8 3.8 41 6.2 W 32 46 17 25 1013.2 1013.2 0.0
06/10:18am 17.2 10.1 3.8 41 6.2 W 30 48 16 26 1013.0 1013.0 0.0
06/10:00am 16.9 10.2 3.9 42 6.1 W 28 39 15 21 1013.1 1013.1 0.0
06/09:30am 16.6 10.2 3.3 41 6.1 W 26 44 14 24 1012.6 1012.6 0.0
06/09:00am 16.1 10.8 3.2 42 5.9 WSW 20 33 11 18 1012.6 1012.6 0.0
06/08:30am 15.1 8.7 3.3 45 5.4 WSW 26 41 14 22 1012.4 1012.4 0.0
06/08:11am 14.7 7.4 2.6 44 5.4 WSW 30 57 16 31 1012.3 1012.3 0.0
06/08:00am 14.4 8.4 3.2 47 5.0 WSW 24 39 13 21 1012.2 1012.2 0.0
06/07:30am 13.8 8.2 3.3 49 4.7 WSW 22 33 12 18 1012.0 1012.0 0.0
06/07:00am 13.0 6.3 3.4 52 4.3 WSW 28 43 15 23 1011.9 1011.9 0.0
06/06:30am 12.9 7.6 3.0 51 4.4 W 20 33 11 18 1011.4 1011.4 0.0
06/06:00am 13.1 7.8 3.2 51 4.4 WSW 20 48 11 26 1011.3 1011.3 0.0
06/05:30am 12.6 7.4 3.5 54 4.1 W 20 37 11 20 1011.3 1011.3 0.0
06/05:00am 12.6 9.0 3.0 52 4.2 WNW 11 20 6 11 1011.2 1011.2 0.0
06/04:30am 13.0 9.0 2.8 50 4.5 NNW 13 20 7 11 1010.8 1010.8 0.0
06/04:00am 14.5 9.5 1.4 41 5.7 WSW 17 30 9 16 1010.8 1010.8 0.0
06/03:30am 14.6 7.9 1.2 40 5.8 W 26 52 14 28 1010.2 1010.2 0.0
06/03:00am 15.0 9.3 0.4 37 6.2 W 20 44 11 24 1009.6 1009.6 0.0
06/02:37am 15.0 8.6 1.2 39 6.0 WNW 24 50 13 27 1009.5 1009.5 0.0
06/02:36am 14.7 8.8 1.9 42 5.6 WNW 22 50 12 27 1009.5 1009.5 0.0
06/02:30am 15.0 10.3 1.2 39 6.0 NW 15 28 8 15 1009.6 1009.6 0.0
06/02:00am 15.2 9.1 3.0 44 5.5 W 24 33 13 18 1009.1 1009.1 0.0
06/01:30am 15.3 9.7 3.5 45 5.4 WSW 22 39 12 21 1008.9 1008.9 0.0
06/01:00am 16.0 12.2 3.8 44 5.6 WSW 13 26 7 14 1008.9 1008.9 0.0
06/12:30am 16.0 10.1 4.1 45 5.5 WNW 24 48 13 26 1008.8 1008.8 0.0
06/12:00am 16.0 11.0 4.7 47 5.3 WNW 20 32 11 17 1008.7 1008.7 0.0
 
Date/Time
EST
Temp
°C
App
Temp
°C
Dew
Point
Rel
Hum
%
Delta-T
°C
Wind Press
QNH
hPa
Press
MSL
hPa
Rain
since 9 am
mm
Dir
 
Spd
km/h
Gust
km/h
Spd
kts
Gust
kts
05/11:30pm 16.7 11.0 5.0 46 5.6 WNW 24 32 13 17 1008.6 1008.6 0.0
05/11:00pm 16.0 11.7 5.3 49 5.1 WNW 17 24 9 13 1009.0 1009.0 0.0
05/10:30pm 17.5 13.1 4.5 42 6.2 W 17 32 9 17 1009.2 1009.2 0.0
05/10:00pm 17.4 11.7 4.7 43 6.1 WSW 24 35 13 19 1008.9 1008.9 0.0
05/09:30pm 18.2 12.4 4.4 40 6.6 WSW 24 37 13 20 1008.6 1008.6 0.0
05/09:08pm 19.2 12.1 3.8 36 7.3 WSW 30 56 16 30 1008.1 1008.1 0.0
05/09:00pm 19.4 13.6 4.3 37 7.2 WSW 24 35 13 19 1008.0 1008.0 0.0
05/08:30pm 19.5 15.3 5.6 40 6.8 WSW 17 22 9 12 1007.4 1007.4 0.0
05/08:00pm 21.1 15.8 8.4 44 6.7 WSW 26 39 14 21 1006.8 1006.8 0.0
05/07:30pm 22.6 16.8 8.0 39 7.7 W 28 46 15 25 1005.7 1005.7 0.0
05/07:00pm 20.5 17.2 9.7 50 5.8 W 17 22 9 12 1005.3 1005.3 0.0
05/06:30pm 20.0 18.5 10.7 55 5.1 SW 9 15 5 8 1004.3 1004.3 0.0
05/06:00pm 22.6 20.4 10.7 47 6.6 NNW 13 24 7 13 1003.5 1003.5 0.0
05/05:30pm 20.8 20.8 13.7 64 4.1 S 6 11 3 6 1003.0 1003.0 0.0
05/05:00pm 23.3 23.1 12.9 52 6.0 NW 6 7 3 4 1002.6 1002.6 0.0
05/04:30pm 25.6 24.4 11.7 42 7.9 N 9 17 5 9 1002.3 1002.3 0.0
05/04:00pm 25.4 23.8 12.9 45 7.3 NNE 13 20 7 11 1002.0 1002.0 0.0
05/03:30pm 26.3 24.6 12.4 42 8.0 N 13 20 7 11 1002.1 1002.1 0.0
05/03:00pm 26.1 23.9 12.2 42 8.0 N 15 20 8 11 1002.1 1002.1 0.0
05/02:30pm 26.2 23.8 13.7 46 7.4 NNW 19 28 10 15 1002.1 1002.1 0.0
05/02:00pm 27.0 23.2 9.8 34 9.6 NW 20 28 11 15 1002.4 1002.4 0.0
05/01:30pm 26.8 23.4 10.5 36 9.1 NNW 19 30 10 16 1002.7 1002.7 0.0
05/01:00pm 25.9 25.4 15.0 51 6.6 NE 11 15 6 8 1003.3 1003.3 0.0
05/12:30pm 26.2 24.2 11.5 40 8.4 N 13 20 7 11 1003.8 1003.8 0.0
05/12:00pm 24.5 24.0 14.9 55 5.8 NE 11 17 6 9 1004.8 1004.8 0.0
05/11:30am 23.3 22.3 14.6 58 5.1 NNE 13 20 7 11 1005.8 1005.8 0.0
05/11:00am 22.7 23.0 16.0 66 4.1 E 9 15 5 8 1006.2 1006.2 0.0
05/10:30am 22.0 20.7 14.9 64 4.2 NNE 15 20 8 11 1006.4 1006.4 0.0
05/10:00am 21.4 21.1 15.5 69 3.5 NNE 11 17 6 9 1007.0 1007.0 0.0
05/09:30am 19.4 20.3 16.6 84 1.7 NNE 7 11 4 6 1007.4 1007.4 0.0
05/09:00am 17.2 17.2 16.2 94 0.6 N 11 13 6 7 1007.5 1007.5 0.0
05/08:30am 15.8 16.9 15.6 99 0.1 W 4 11 2 6 1007.6 1007.6 0.0
05/08:00am 14.8 16.3 14.6 99 0.1 CALM 0 2 0 1 1007.5 1007.5 0.0
05/07:30am 13.4 14.4 13.2 99 0.1 CALM 0 6 0 3 1007.7 1007.7 0.0
05/07:00am 11.7 10.8 11.5 99 0.1 W 7 11 4 6 1007.9 1007.9 0.0
05/06:54am 11.6 10.7 11.4 99 0.1 W 7 9 4 5 1007.9 1007.9 0.0
05/06:30am 11.0 10.1 10.8 99 0.1 W 6 13 3 7 1008.0 1008.0 0.0
05/06:00am 11.3 11.7 11.1 99 0.1 CALM 0 0 0 0 1008.3 1008.3 0.0
05/05:58am 11.3 11.7 11.1 99 0.1 CALM 0 0 0 0 1008.3 1008.3 0.0
05/05:30am 12.1 11.6 11.9 99 0.1 WSW 6 7 3 4 1008.4 1008.4 0.0
05/05:00am 12.3 13.0 12.1 99 0.1 CALM 0 0 0 0 1008.7 1008.7 0.0
05/04:43am 12.2 11.7 12.0 99 0.1 WSW 6 7 3 4 1009.0 1009.0 0.0
05/04:30am 12.3 13.0 12.1 99 0.1 CALM 0 0 0 0 1009.1 1009.1 0.0
05/04:24am 12.5 13.2 12.3 99 0.1 CALM 0 0 0 0 1009.1 1009.1 0.0
05/04:00am 12.6 13.4 12.4 99 0.1 CALM 0 0 0 0 1009.2 1009.2 0.0
05/03:49am 12.3 12.6 12.1 99 0.1 WSW 2 6 1 3 1009.2 1009.2 0.0
05/03:30am 12.4 13.1 12.2 99 0.1 CALM 0 7 0 4 1009.5 1009.5 0.0
05/03:29am 12.5 13.2 12.3 99 0.1 CALM 0 6 0 3 1009.5 1009.5 0.0
05/03:01am 12.6 12.6 12.4 99 0.1 WSW 4 7 2 4 1010.0 1010.0 0.0
05/03:00am 12.6 12.6 12.4 99 0.1 WSW 4 7 2 4 1010.1 1010.1 0.0
05/02:37am 12.8 13.2 12.6 99 0.1 SW 2 9 1 5 1010.1 1010.1 0.0
05/02:30am 12.9 13.4 12.7 99 0.1 SW 2 9 1 5 1010.2 1010.2 0.0
05/02:00am 13.5 14.5 13.3 99 0.1 CALM 0 0 0 0 1010.8 1010.8 0.0
05/01:30am 14.0 15.2 13.8 99 0.1 CALM 0 7 0 4 1011.2 1011.2 0.0
05/01:00am 14.0 15.2 13.8 99 0.1 CALM 0 0 0 0 1011.4 1011.4 0.0
05/12:30am 14.8 15.1 14.6 99 0.1 WNW 6 9 3 5 1011.8 1011.8 0.0
05/12:00am 14.3 13.5 14.1 99 0.1 W 11 13 6 7 1012.1 1012.1 0.0
 
Date/Time
EST
Temp
°C
App
Temp
°C
Dew
Point
Rel
Hum
%
Delta-T
°C
Wind Press
QNH
hPa
Press
MSL
hPa
Rain
since 9 am
mm
Dir
 
Spd
km/h
Gust
km/h
Spd
kts
Gust
kts
04/11:30pm 14.3 15.6 14.0 98 0.2 CALM 0 0 0 0 1012.6 1012.6 0.0
04/11:00pm 14.9 16.0 14.6 98 0.2 WNW 2 7 1 4 1013.0 1013.0 0.0
04/10:30pm 15.3 16.9 15.0 98 0.2 CALM 0 0 0 0 1013.3 1013.3 0.0
04/10:17pm 15.7 17.5 15.4 98 0.2 CALM 0 0 0 0 1013.4 1013.4 0.0
04/10:00pm 16.0 16.6 15.8 99 0.1 WNW 7 9 4 5 1013.5 1013.5 0.0
04/09:30pm 16.0 16.8 15.8 99 0.1 W 6 9 3 5 1013.9 1013.9 0.0
04/09:00pm 15.5 16.1 15.3 99 0.1 W 6 7 3 4 1013.8 1013.8 0.0
04/08:41pm 15.4 16.0 15.2 99 0.1 W 6 7 3 4 1013.8 1013.8 0.0
04/08:30pm 14.9 15.2 14.6 98 0.2 W 6 7 3 4 1013.8 1013.8 0.0
04/08:00pm 15.7 16.3 15.2 97 0.3 W 6 7 3 4 1013.7 1013.7 0.0
04/07:30pm 15.7 17.0 15.1 96 0.3 W 2 6 1 3 1013.6 1013.6 0.0
04/07:00pm 16.7 18.6 15.7 94 0.6 CALM 0 0 0 0 1013.7 1013.7 0.0
04/06:30pm 16.9 18.8 15.8 93 0.6 CALM 0 0 0 0 1013.7 1013.7 0.0
04/06:00pm 17.2 19.1 15.7 91 0.9 CALM 0 7 0 4 1013.8 1013.8 0.0
04/05:40pm 17.9 19.9 15.9 88 1.2 CALM 0 0 0 0 1013.5 1013.5 0.0
04/05:30pm 18.1 20.1 15.9 87 1.3 CALM 0 4 0 2 1013.4 1013.4 0.0
04/05:03pm 18.8 19.5 16.0 84 1.7 ESE 7 7 4 4 1013.2 1013.2 0.0
04/05:00pm 19.0 19.9 16.2 84 1.7 ESE 6 7 3 4 1013.3 1013.3 0.0
04/04:30pm 19.4 19.7 15.9 80 2.1 ESE 9 13 5 7 1013.3 1013.3 0.0
04/04:00pm 20.1 20.1 15.3 74 2.8 ESE 9 13 5 7 1013.1 1013.1 0.0
04/03:30pm 21.0 21.7 16.0 73 3.0 ESE 7 13 4 7 1013.1 1013.1 0.0
04/03:00pm 20.9 21.2 15.9 73 3.0 ESE 9 13 5 7 1013.2 1013.2 0.0
04/02:30pm 20.5 19.8 15.3 72 3.1 ESE 13 20 7 11 1013.2 1013.2 0.0
04/02:00pm 21.1 20.3 16.1 73 3.0 E 15 20 8 11 1013.1 1013.1 0.0
04/01:30pm 21.3 21.7 16.3 73 3.0 ESE 9 13 5 7 1013.2 1013.2 0.0
04/01:00pm 21.3 21.1 15.8 71 3.3 S 11 17 6 9 1013.7 1013.7 0.0
04/12:30pm 20.7 20.8 15.5 72 3.1 S 9 17 5 9 1014.3 1014.3 0.0
04/12:00pm 20.5 19.4 16.3 77 2.5 S 17 20 9 11 1014.9 1014.9 0.0
04/11:30am 20.6 20.4 15.8 74 2.9 SSE 11 15 6 8 1015.3 1015.3 0.0
04/11:04am 20.4 19.4 15.6 74 2.9 S 15 17 8 9 1015.6 1015.6 0.0
04/11:00am 20.2 19.4 15.2 73 2.9 S 13 17 7 9 1015.6 1015.6 0.0
04/10:30am 20.2 19.4 15.0 72 3.1 SSW 13 20 7 11 1015.8 1015.8 0.0
04/10:26am 20.8 20.7 16.0 74 2.9 SW 11 19 6 10 1015.8 1015.8 0.0
04/10:00am 20.1 18.8 15.7 76 2.6 S 17 22 9 12 1015.7 1015.7 0.0
04/09:30am 19.5 19.7 14.7 74 2.8 W 7 9 4 5 1015.9 1015.9 0.0
04/09:00am 19.2 19.2 15.1 77 2.4 WSW 9 13 5 7 1016.1 1016.1 0.0
04/08:30am 19.1 17.2 15.2 78 2.3 SW 19 32 10 17 1016.2 1016.2 0.0
04/08:00am 18.7 17.7 14.6 77 2.4 SW 13 20 7 11 1016.1 1016.1 0.0
04/07:30am 18.2 17.2 14.7 80 2.0 SW 13 19 7 10 1015.8 1015.8 0.0
04/07:00am 17.9 15.7 14.4 80 2.0 SW 19 26 10 14 1015.6 1015.6 0.0
04/06:30am 17.9 16.5 14.4 80 2.0 SSW 15 22 8 12 1015.3 1015.3 0.0
04/06:00am 18.0 16.6 14.5 80 2.0 SW 15 28 8 15 1015.2 1015.2 0.0
04/05:30am 17.2 16.1 14.3 83 1.7 SW 13 17 7 9 1015.1 1015.1 0.0
04/05:00am 17.6 17.0 14.5 82 1.8 W 11 15 6 8 1015.1 1015.1 0.0
04/04:46am 17.6 16.9 14.3 81 1.9 SW 11 20 6 11 1015.0 - 0.0
04/04:30am 17.9 16.5 14.4 80 2.0 WSW 15 20 8 11 1015.0 1015.0 0.0
04/04:00am 17.4 16.8 14.7 84 1.6 SW 11 15 6 8 1014.9 1014.9 0.0
04/03:30am 17.7 16.9 15.0 84 1.6 SW 13 15 7 8 1014.6 1014.6 0.0
04/03:02am 18.2 16.9 14.7 80 2.0 SW 15 20 8 11 1014.8 1014.8 0.0

Other Formats:

Comma delimited format used in spreadsheet applications
http://www.bom.gov.au/fwo/IDN60801/IDN60801.95748.axf

JavaScript Object Notation format (JSON) in row-major order
http://www.bom.gov.au/fwo/IDN60801/IDN60801.95748.json